sensor_id;sensor_type;location;lat;lon;timestamp;pressure;altitude;pressure_sealevel;temperature;humidity
12358;BME280;6243;51.244;6.774;2023-07-30T00:01:43;115150.97;;;-141.28;44.55
12358;BME280;6243;51.244;6.774;2023-07-30T00:04:09;115150.97;;;-141.28;44.26
12358;BME280;6243;51.244;6.774;2023-07-30T00:06:34;115150.97;;;-141.28;44.00
12358;BME280;6243;51.244;6.774;2023-07-30T00:09:01;115150.97;;;-141.28;43.57
12358;BME280;6243;51.244;6.774;2023-07-30T00:11:26;115150.97;;;-141.28;44.88
12358;BME280;6243;51.244;6.774;2023-07-30T00:13:52;115150.97;;;-141.28;44.45
12358;BME280;6243;51.244;6.774;2023-07-30T00:16:17;115150.97;;;-141.28;44.33
12358;BME280;6243;51.244;6.774;2023-07-30T00:18:43;115150.97;;;-141.28;46.35
12358;BME280;6243;51.244;6.774;2023-07-30T00:21:08;115150.97;;;-141.28;46.08
12358;BME280;6243;51.244;6.774;2023-07-30T00:23:34;115150.97;;;-141.28;45.00
12358;BME280;6243;51.244;6.774;2023-07-30T00:26:01;115150.97;;;-141.28;44.69
12358;BME280;6243;51.244;6.774;2023-07-30T00:28:26;115150.97;;;-141.28;44.29
12358;BME280;6243;51.244;6.774;2023-07-30T00:30:52;115150.97;;;-141.28;44.17
12358;BME280;6243;51.244;6.774;2023-07-30T00:33:17;115150.97;;;-141.28;43.91
12358;BME280;6243;51.244;6.774;2023-07-30T00:35:43;115150.97;;;-141.28;44.17
12358;BME280;6243;51.244;6.774;2023-07-30T00:38:08;115150.97;;;-141.28;44.98
12358;BME280;6243;51.244;6.774;2023-07-30T00:40:39;115150.97;;;-141.28;43.74
12358;BME280;6243;51.244;6.774;2023-07-30T00:43:06;115150.97;;;-141.28;43.25
12358;BME280;6243;51.244;6.774;2023-07-30T00:45:32;115150.97;;;-141.28;43.79
12358;BME280;6243;51.244;6.774;2023-07-30T00:47:58;115150.97;;;-141.28;45.42
12358;BME280;6243;51.244;6.774;2023-07-30T00:50:24;115150.97;;;-141.28;45.61
12358;BME280;6243;51.244;6.774;2023-07-30T00:52:50;115150.97;;;-141.28;45.43
12358;BME280;6243;51.244;6.774;2023-07-30T00:55:15;115150.97;;;-141.28;44.50
12358;BME280;6243;51.244;6.774;2023-07-30T00:57:41;115150.97;;;-141.28;45.73
12358;BME280;6243;51.244;6.774;2023-07-30T01:00:10;115150.97;;;-141.28;46.94
12358;BME280;6243;51.244;6.774;2023-07-30T01:05:11;115150.97;;;-141.28;46.58
12358;BME280;6243;51.244;6.774;2023-07-30T01:07:36;115150.97;;;-141.28;47.85
12358;BME280;6243;51.244;6.774;2023-07-30T01:10:02;115150.97;;;-141.28;46.25
12358;BME280;6243;51.244;6.774;2023-07-30T01:12:29;115150.97;;;-141.28;46.75
12358;BME280;6243;51.244;6.774;2023-07-30T01:14:56;115150.97;;;-141.28;47.47
12358;BME280;6243;51.244;6.774;2023-07-30T01:17:23;115150.97;;;-141.28;47.10
12358;BME280;6243;51.244;6.774;2023-07-30T01:19:49;115150.97;;;-141.28;46.94
12358;BME280;6243;51.244;6.774;2023-07-30T01:22:16;115150.97;;;-141.28;47.95
12358;BME280;6243;51.244;6.774;2023-07-30T01:24:42;115150.97;;;-141.28;46.71
12358;BME280;6243;51.244;6.774;2023-07-30T01:27:13;115150.97;;;-141.28;45.80
12358;BME280;6243;51.244;6.774;2023-07-30T01:29:42;115150.97;;;-141.28;46.45
12358;BME280;6243;51.244;6.774;2023-07-30T01:32:11;115150.97;;;-141.28;47.09
12358;BME280;6243;51.244;6.774;2023-07-30T01:34:39;115150.97;;;-141.28;46.74
12358;BME280;6243;51.244;6.774;2023-07-30T01:37:05;115150.97;;;-141.28;45.12
12358;BME280;6243;51.244;6.774;2023-07-30T01:39:35;115150.97;;;-141.28;45.15
12358;BME280;6243;51.244;6.774;2023-07-30T01:42:02;115150.97;;;-141.28;47.02
12358;BME280;6243;51.244;6.774;2023-07-30T01:44:28;115150.97;;;-141.28;44.45
12358;BME280;6243;51.244;6.774;2023-07-30T01:46:53;115150.97;;;-141.28;46.30
12358;BME280;6243;51.244;6.774;2023-07-30T01:49:19;115150.97;;;-141.28;46.80
12358;BME280;6243;51.244;6.774;2023-07-30T01:51:44;115150.97;;;-141.28;45.40
12358;BME280;6243;51.244;6.774;2023-07-30T01:54:10;115150.97;;;-141.28;45.95
12358;BME280;6243;51.244;6.774;2023-07-30T01:56:37;115150.97;;;-141.28;45.13
12358;BME280;6243;51.244;6.774;2023-07-30T01:59:02;115150.97;;;-141.28;46.34
12358;BME280;6243;51.244;6.774;2023-07-30T02:01:28;115150.97;;;-141.28;46.29
12358;BME280;6243;51.244;6.774;2023-07-30T02:04:05;115150.97;;;-141.28;47.21
12358;BME280;6243;51.244;6.774;2023-07-30T02:06:31;115150.97;;;-141.28;45.29
12358;BME280;6243;51.244;6.774;2023-07-30T02:08:56;115150.97;;;-141.28;45.91
12358;BME280;6243;51.244;6.774;2023-07-30T02:11:22;115150.97;;;-141.28;46.26
12358;BME280;6243;51.244;6.774;2023-07-30T02:13:49;115150.97;;;-141.28;47.27
12358;BME280;6243;51.244;6.774;2023-07-30T02:16:14;115150.97;;;-141.28;45.51
12358;BME280;6243;51.244;6.774;2023-07-30T02:18:40;115150.97;;;-141.28;46.44
12358;BME280;6243;51.244;6.774;2023-07-30T02:21:05;115150.97;;;-141.28;45.80
12358;BME280;6243;51.244;6.774;2023-07-30T02:23:31;115150.97;;;-141.28;45.17
12358;BME280;6243;51.244;6.774;2023-07-30T02:25:57;115150.97;;;-141.28;44.35
12358;BME280;6243;51.244;6.774;2023-07-30T02:28:22;115150.97;;;-141.28;43.71
12358;BME280;6243;51.244;6.774;2023-07-30T02:30:49;115150.97;;;-141.28;44.29
12358;BME280;6243;51.244;6.774;2023-07-30T02:33:14;115150.97;;;-141.28;45.74
12358;BME280;6243;51.244;6.774;2023-07-30T02:35:40;115150.97;;;-141.28;43.53
12358;BME280;6243;51.244;6.774;2023-07-30T02:38:05;115150.97;;;-141.28;44.32
12358;BME280;6243;51.244;6.774;2023-07-30T02:40:31;115150.97;;;-141.28;44.63
12358;BME280;6243;51.244;6.774;2023-07-30T02:42:57;115150.97;;;-141.28;43.94
12358;BME280;6243;51.244;6.774;2023-07-30T02:45:22;115150.97;;;-141.28;43.72
12358;BME280;6243;51.244;6.774;2023-07-30T02:47:49;115150.97;;;-141.28;42.99
12358;BME280;6243;51.244;6.774;2023-07-30T02:50:14;115150.97;;;-141.28;42.63
12358;BME280;6243;51.244;6.774;2023-07-30T02:52:40;115150.97;;;-141.28;45.19
12358;BME280;6243;51.244;6.774;2023-07-30T02:55:06;115150.97;;;-141.28;44.55
12358;BME280;6243;51.244;6.774;2023-07-30T02:57:31;115150.97;;;-141.28;44.00
12358;BME280;6243;51.244;6.774;2023-07-30T02:59:57;115150.97;;;-141.28;44.63
12358;BME280;6243;51.244;6.774;2023-07-30T03:02:22;115150.97;;;-141.28;43.98
12358;BME280;6243;51.244;6.774;2023-07-30T03:04:49;115150.97;;;-141.28;44.00
12358;BME280;6243;51.244;6.774;2023-07-30T03:07:15;115150.97;;;-141.28;44.10
12358;BME280;6243;51.244;6.774;2023-07-30T03:09:40;115150.97;;;-141.28;46.68
12358;BME280;6243;51.244;6.774;2023-07-30T03:12:06;115150.97;;;-141.28;43.77
12358;BME280;6243;51.244;6.774;2023-07-30T03:14:32;115150.97;;;-141.28;43.47
12358;BME280;6243;51.244;6.774;2023-07-30T03:16:57;115150.97;;;-141.28;45.51
12358;BME280;6243;51.244;6.774;2023-07-30T03:19:23;115150.97;;;-141.28;44.09
12358;BME280;6243;51.244;6.774;2023-07-30T03:21:50;115150.97;;;-141.28;45.62
12358;BME280;6243;51.244;6.774;2023-07-30T03:24:15;115150.97;;;-141.28;43.79
12358;BME280;6243;51.244;6.774;2023-07-30T03:26:41;115150.97;;;-141.28;42.51
12358;BME280;6243;51.244;6.774;2023-07-30T03:29:06;115150.97;;;-141.28;45.11
12358;BME280;6243;51.244;6.774;2023-07-30T03:31:32;115150.97;;;-141.28;42.91
12358;BME280;6243;51.244;6.774;2023-07-30T03:33:57;115150.97;;;-141.28;43.95
12358;BME280;6243;51.244;6.774;2023-07-30T03:36:23;115150.97;;;-141.28;43.49
12358;BME280;6243;51.244;6.774;2023-07-30T03:38:49;115150.97;;;-141.28;42.71
12358;BME280;6243;51.244;6.774;2023-07-30T03:41:15;115150.97;;;-141.28;45.28
12358;BME280;6243;51.244;6.774;2023-07-30T03:43:40;115150.97;;;-141.28;43.18
12358;BME280;6243;51.244;6.774;2023-07-30T03:46:06;115150.97;;;-141.28;43.35
12358;BME280;6243;51.244;6.774;2023-07-30T03:48:32;115150.97;;;-141.28;43.09
12358;BME280;6243;51.244;6.774;2023-07-30T03:50:57;115150.97;;;-141.28;44.49
12358;BME280;6243;51.244;6.774;2023-07-30T03:53:23;115150.97;;;-141.28;43.69
12358;BME280;6243;51.244;6.774;2023-07-30T03:55:49;115150.97;;;-141.28;43.77
12358;BME280;6243;51.244;6.774;2023-07-30T03:58:15;115150.97;;;-141.28;44.70
12358;BME280;6243;51.244;6.774;2023-07-30T04:00:41;115150.97;;;-141.28;44.55
12358;BME280;6243;51.244;6.774;2023-07-30T04:03:06;115150.97;;;-141.28;44.49
12358;BME280;6243;51.244;6.774;2023-07-30T04:05:32;115150.97;;;-141.28;43.97
12358;BME280;6243;51.244;6.774;2023-07-30T04:07:57;115150.97;;;-141.28;45.14
12358;BME280;6243;51.244;6.774;2023-07-30T04:10:23;115150.97;;;-141.28;44.60
12358;BME280;6243;51.244;6.774;2023-07-30T04:12:50;115150.97;;;-141.28;44.31
12358;BME280;6243;51.244;6.774;2023-07-30T04:15:16;115150.97;;;-141.28;43.46
12358;BME280;6243;51.244;6.774;2023-07-30T04:17:42;115150.97;;;-141.28;44.65
12358;BME280;6243;51.244;6.774;2023-07-30T04:20:08;115150.97;;;-141.28;43.96
12358;BME280;6243;51.244;6.774;2023-07-30T04:22:34;115150.97;;;-141.28;45.40
12358;BME280;6243;51.244;6.774;2023-07-30T04:24:59;115150.97;;;-141.28;45.28
12358;BME280;6243;51.244;6.774;2023-07-30T04:27:25;115150.97;;;-141.28;45.09
12358;BME280;6243;51.244;6.774;2023-07-30T04:29:52;115150.97;;;-141.28;43.01
12358;BME280;6243;51.244;6.774;2023-07-30T04:32:17;115150.97;;;-141.28;43.11
12358;BME280;6243;51.244;6.774;2023-07-30T04:34:43;115150.97;;;-141.28;44.78
12358;BME280;6243;51.244;6.774;2023-07-30T04:37:08;115150.97;;;-141.28;43.71
12358;BME280;6243;51.244;6.774;2023-07-30T04:39:35;115150.97;;;-141.28;43.67
12358;BME280;6243;51.244;6.774;2023-07-30T04:42:00;115150.97;;;-141.28;43.82
12358;BME280;6243;51.244;6.774;2023-07-30T04:44:26;115150.97;;;-141.28;46.94
12358;BME280;6243;51.244;6.774;2023-07-30T04:46:53;115150.97;;;-141.28;45.29
12358;BME280;6243;51.244;6.774;2023-07-30T04:49:18;115150.97;;;-141.28;44.96
12358;BME280;6243;51.244;6.774;2023-07-30T04:51:44;115150.97;;;-141.28;47.19
12358;BME280;6243;51.244;6.774;2023-07-30T04:54:09;115150.97;;;-141.28;47.80
12358;BME280;6243;51.244;6.774;2023-07-30T04:56:35;115150.97;;;-141.28;46.07
12358;BME280;6243;51.244;6.774;2023-07-30T04:59:01;115150.97;;;-141.28;48.38
12358;BME280;6243;51.244;6.774;2023-07-30T05:01:27;115150.97;;;-141.28;46.07
12358;BME280;6243;51.244;6.774;2023-07-30T05:03:54;115150.97;;;-141.28;47.77
12358;BME280;6243;51.244;6.774;2023-07-30T05:06:20;115150.97;;;-141.28;46.11
12358;BME280;6243;51.244;6.774;2023-07-30T05:08:45;115150.97;;;-141.28;45.56
12358;BME280;6243;51.244;6.774;2023-07-30T05:11:10;115150.97;;;-141.28;44.78
12358;BME280;6243;51.244;6.774;2023-07-30T05:13:36;115150.97;;;-141.28;45.74
12358;BME280;6243;51.244;6.774;2023-07-30T05:16:02;115150.97;;;-141.28;46.21
12358;BME280;6243;51.244;6.774;2023-07-30T05:18:27;115150.97;;;-141.28;43.84
12358;BME280;6243;51.244;6.774;2023-07-30T05:20:54;115150.97;;;-141.28;44.27
12358;BME280;6243;51.244;6.774;2023-07-30T05:23:20;115150.97;;;-141.28;44.30
12358;BME280;6243;51.244;6.774;2023-07-30T05:25:45;115150.97;;;-141.28;44.60
12358;BME280;6243;51.244;6.774;2023-07-30T05:28:11;115150.97;;;-141.28;45.22
12358;BME280;6243;51.244;6.774;2023-07-30T05:30:36;115150.97;;;-141.28;44.45
12358;BME280;6243;51.244;6.774;2023-07-30T05:33:02;115150.97;;;-141.28;42.54
12358;BME280;6243;51.244;6.774;2023-07-30T05:35:28;115150.97;;;-141.28;43.92
12358;BME280;6243;51.244;6.774;2023-07-30T05:37:55;115150.97;;;-141.28;43.08
12358;BME280;6243;51.244;6.774;2023-07-30T05:40:20;115150.97;;;-141.28;43.26
12358;BME280;6243;51.244;6.774;2023-07-30T05:42:46;115150.97;;;-141.28;42.24
12358;BME280;6243;51.244;6.774;2023-07-30T05:45:12;115150.97;;;-141.28;42.80
12358;BME280;6243;51.244;6.774;2023-07-30T05:47:37;115150.97;;;-141.28;44.83
12358;BME280;6243;51.244;6.774;2023-07-30T05:50:03;115150.97;;;-141.28;42.58
12358;BME280;6243;51.244;6.774;2023-07-30T05:52:29;115150.97;;;-141.28;44.43
12358;BME280;6243;51.244;6.774;2023-07-30T05:54:55;115150.97;;;-141.28;43.93
12358;BME280;6243;51.244;6.774;2023-07-30T05:57:21;115150.97;;;-141.28;42.46
12358;BME280;6243;51.244;6.774;2023-07-30T05:59:46;115150.97;;;-141.28;44.93
12358;BME280;6243;51.244;6.774;2023-07-30T06:02:12;115150.97;;;-141.28;45.66
12358;BME280;6243;51.244;6.774;2023-07-30T06:04:37;115150.97;;;-141.28;42.83
12358;BME280;6243;51.244;6.774;2023-07-30T06:07:04;115150.97;;;-141.28;44.41
12358;BME280;6243;51.244;6.774;2023-07-30T06:09:29;115150.97;;;-141.28;43.54
12358;BME280;6243;51.244;6.774;2023-07-30T06:11:57;115150.97;;;-141.28;43.72
12358;BME280;6243;51.244;6.774;2023-07-30T06:14:22;115150.97;;;-141.28;43.14
12358;BME280;6243;51.244;6.774;2023-07-30T06:16:48;115150.97;;;-141.28;42.10
12358;BME280;6243;51.244;6.774;2023-07-30T06:19:13;115150.97;;;-141.28;42.98
12358;BME280;6243;51.244;6.774;2023-07-30T06:21:39;115150.97;;;-141.28;43.64
12358;BME280;6243;51.244;6.774;2023-07-30T06:24:04;115150.97;;;-141.28;44.20
12358;BME280;6243;51.244;6.774;2023-07-30T06:26:30;115150.97;;;-141.28;42.94
12358;BME280;6243;51.244;6.774;2023-07-30T06:28:57;115150.97;;;-141.28;43.63
12358;BME280;6243;51.244;6.774;2023-07-30T06:31:23;115150.97;;;-141.28;42.07
12358;BME280;6243;51.244;6.774;2023-07-30T06:33:48;115150.97;;;-141.28;43.19
12358;BME280;6243;51.244;6.774;2023-07-30T06:36:13;115150.97;;;-141.28;43.32
12358;BME280;6243;51.244;6.774;2023-07-30T06:38:39;115150.97;;;-141.28;42.83
12358;BME280;6243;51.244;6.774;2023-07-30T06:41:05;115150.97;;;-141.28;43.59
12358;BME280;6243;51.244;6.774;2023-07-30T06:43:30;115150.97;;;-141.28;43.53
12358;BME280;6243;51.244;6.774;2023-07-30T06:45:57;115150.97;;;-141.28;43.84
12358;BME280;6243;51.244;6.774;2023-07-30T06:48:23;115150.97;;;-141.28;44.81
12358;BME280;6243;51.244;6.774;2023-07-30T06:50:48;115150.97;;;-141.28;44.80
12358;BME280;6243;51.244;6.774;2023-07-30T06:53:14;115150.97;;;-141.28;43.64
12358;BME280;6243;51.244;6.774;2023-07-30T06:55:39;115150.97;;;-141.28;42.69
12358;BME280;6243;51.244;6.774;2023-07-30T06:58:05;115150.97;;;-141.28;43.24
12358;BME280;6243;51.244;6.774;2023-07-30T07:00:30;115150.97;;;-141.28;43.39
12358;BME280;6243;51.244;6.774;2023-07-30T07:02:57;115150.97;;;-141.28;43.44
12358;BME280;6243;51.244;6.774;2023-07-30T07:05:23;115150.97;;;-141.28;44.80
12358;BME280;6243;51.244;6.774;2023-07-30T07:07:48;115150.97;;;-141.28;43.26
12358;BME280;6243;51.244;6.774;2023-07-30T07:10:14;115150.97;;;-141.28;44.54
12358;BME280;6243;51.244;6.774;2023-07-30T07:12:39;115150.97;;;-141.28;43.52
12358;BME280;6243;51.244;6.774;2023-07-30T07:15:06;115150.97;;;-141.28;42.58
12358;BME280;6243;51.244;6.774;2023-07-30T07:17:31;115150.97;;;-141.28;43.18
12358;BME280;6243;51.244;6.774;2023-07-30T07:19:58;115150.97;;;-141.28;43.17
12358;BME280;6243;51.244;6.774;2023-07-30T07:22:24;115150.97;;;-141.28;42.46
12358;BME280;6243;51.244;6.774;2023-07-30T07:24:50;115150.97;;;-141.28;42.81
12358;BME280;6243;51.244;6.774;2023-07-30T07:27:16;115150.97;;;-141.28;43.54
12358;BME280;6243;51.244;6.774;2023-07-30T07:29:41;115150.97;;;-141.28;43.53
12358;BME280;6243;51.244;6.774;2023-07-30T07:32:07;115150.97;;;-141.28;43.90
12358;BME280;6243;51.244;6.774;2023-07-30T07:34:32;115150.97;;;-141.28;43.16
12358;BME280;6243;51.244;6.774;2023-07-30T07:37:00;115150.97;;;-141.28;44.98
12358;BME280;6243;51.244;6.774;2023-07-30T07:39:26;115150.97;;;-141.28;42.56
12358;BME280;6243;51.244;6.774;2023-07-30T07:41:51;115150.97;;;-141.28;42.56
12358;BME280;6243;51.244;6.774;2023-07-30T07:44:17;115150.97;;;-141.28;42.71
12358;BME280;6243;51.244;6.774;2023-07-30T07:46:42;115150.97;;;-141.28;42.79
12358;BME280;6243;51.244;6.774;2023-07-30T07:49:08;115150.97;;;-141.28;44.80
12358;BME280;6243;51.244;6.774;2023-07-30T07:51:33;115150.97;;;-141.28;44.33
12358;BME280;6243;51.244;6.774;2023-07-30T07:54:00;115150.97;;;-141.28;43.35
12358;BME280;6243;51.244;6.774;2023-07-30T07:56:26;115150.97;;;-141.28;42.81
12358;BME280;6243;51.244;6.774;2023-07-30T07:58:51;115150.97;;;-141.28;43.15
12358;BME280;6243;51.244;6.774;2023-07-30T08:01:17;115150.97;;;-141.28;43.05
12358;BME280;6243;51.244;6.774;2023-07-30T08:03:43;115150.97;;;-141.28;42.30
12358;BME280;6243;51.244;6.774;2023-07-30T08:06:09;115150.97;;;-141.28;42.51
12358;BME280;6243;51.244;6.774;2023-07-30T08:08:35;115150.97;;;-141.28;42.30
12358;BME280;6243;51.244;6.774;2023-07-30T08:11:06;115150.97;;;-141.28;42.83
12358;BME280;6243;51.244;6.774;2023-07-30T08:13:31;115150.97;;;-141.28;43.12
12358;BME280;6243;51.244;6.774;2023-07-30T08:15:57;115150.97;;;-141.28;42.10
12358;BME280;6243;51.244;6.774;2023-07-30T08:18:22;115150.97;;;-141.28;42.28
12358;BME280;6243;51.244;6.774;2023-07-30T08:20:49;115150.97;;;-141.28;43.44
12358;BME280;6243;51.244;6.774;2023-07-30T08:23:15;115150.97;;;-141.28;42.33
12358;BME280;6243;51.244;6.774;2023-07-30T08:25:41;115150.97;;;-141.28;43.66
12358;BME280;6243;51.244;6.774;2023-07-30T08:28:07;115150.97;;;-141.28;43.83
12358;BME280;6243;51.244;6.774;2023-07-30T08:30:33;115150.97;;;-141.28;42.66
12358;BME280;6243;51.244;6.774;2023-07-30T08:32:58;115150.97;;;-141.28;41.99
12358;BME280;6243;51.244;6.774;2023-07-30T08:35:24;115150.97;;;-141.28;45.04
12358;BME280;6243;51.244;6.774;2023-07-30T08:37:50;115150.97;;;-141.28;44.05
12358;BME280;6243;51.244;6.774;2023-07-30T08:40:15;115150.97;;;-141.28;42.61
12358;BME280;6243;51.244;6.774;2023-07-30T08:42:41;115150.97;;;-141.28;42.65
12358;BME280;6243;51.244;6.774;2023-07-30T08:45:08;115150.97;;;-141.28;42.08
12358;BME280;6243;51.244;6.774;2023-07-30T08:47:34;115150.97;;;-141.28;42.78
12358;BME280;6243;51.244;6.774;2023-07-30T08:50:00;115150.97;;;-141.28;43.39
12358;BME280;6243;51.244;6.774;2023-07-30T08:52:26;115150.97;;;-141.28;42.46
12358;BME280;6243;51.244;6.774;2023-07-30T08:54:54;115150.97;;;-141.28;43.04
12358;BME280;6243;51.244;6.774;2023-07-30T08:57:20;115150.97;;;-141.28;42.02
12358;BME280;6243;51.244;6.774;2023-07-30T08:59:50;115150.97;;;-141.28;41.24
12358;BME280;6243;51.244;6.774;2023-07-30T09:02:24;115150.97;;;-141.28;40.87
12358;BME280;6243;51.244;6.774;2023-07-30T09:04:53;115150.97;;;-141.28;41.18
12358;BME280;6243;51.244;6.774;2023-07-30T09:07:22;115150.97;;;-141.28;41.40
12358;BME280;6243;51.244;6.774;2023-07-30T09:09:49;115150.97;;;-141.28;41.07
12358;BME280;6243;51.244;6.774;2023-07-30T09:12:15;115150.97;;;-141.28;42.02
12358;BME280;6243;51.244;6.774;2023-07-30T09:14:41;115150.97;;;-141.28;40.58
12358;BME280;6243;51.244;6.774;2023-07-30T09:17:07;115150.97;;;-141.28;40.79
12358;BME280;6243;51.244;6.774;2023-07-30T09:19:35;115150.97;;;-141.28;40.16
12358;BME280;6243;51.244;6.774;2023-07-30T09:22:04;115150.97;;;-141.28;40.46
12358;BME280;6243;51.244;6.774;2023-07-30T09:24:30;115150.97;;;-141.28;39.83
12358;BME280;6243;51.244;6.774;2023-07-30T09:26:55;115150.97;;;-141.28;39.35
12358;BME280;6243;51.244;6.774;2023-07-30T09:29:21;115150.97;;;-141.28;39.57
12358;BME280;6243;51.244;6.774;2023-07-30T09:31:47;115150.97;;;-141.28;39.67
12358;BME280;6243;51.244;6.774;2023-07-30T09:34:15;115150.97;;;-141.28;39.48
12358;BME280;6243;51.244;6.774;2023-07-30T09:36:43;115150.97;;;-141.28;39.32
12358;BME280;6243;51.244;6.774;2023-07-30T09:39:14;115150.97;;;-141.28;37.53
12358;BME280;6243;51.244;6.774;2023-07-30T09:41:41;115150.97;;;-141.28;37.82
12358;BME280;6243;51.244;6.774;2023-07-30T09:44:07;115150.97;;;-141.28;37.75
12358;BME280;6243;51.244;6.774;2023-07-30T09:46:42;115150.97;;;-141.28;36.67
12358;BME280;6243;51.244;6.774;2023-07-30T09:49:08;115150.97;;;-141.28;36.67
12358;BME280;6243;51.244;6.774;2023-07-30T09:51:34;115150.97;;;-141.28;36.53
12358;BME280;6243;51.244;6.774;2023-07-30T09:54:01;115150.97;;;-141.28;36.75
12358;BME280;6243;51.244;6.774;2023-07-30T09:56:26;115150.97;;;-141.28;38.11
12358;BME280;6243;51.244;6.774;2023-07-30T09:58:52;115150.97;;;-141.28;37.49
12358;BME280;6243;51.244;6.774;2023-07-30T10:01:18;115150.97;;;-141.28;36.67
12358;BME280;6243;51.244;6.774;2023-07-30T10:03:48;115150.97;;;-141.28;35.89
12358;BME280;6243;51.244;6.774;2023-07-30T10:06:14;115150.97;;;-141.28;36.55
12358;BME280;6243;51.244;6.774;2023-07-30T10:08:41;115150.97;;;-141.28;36.12
12358;BME280;6243;51.244;6.774;2023-07-30T10:11:09;115150.97;;;-141.28;35.78
12358;BME280;6243;51.244;6.774;2023-07-30T10:13:36;115150.97;;;-141.28;36.32
12358;BME280;6243;51.244;6.774;2023-07-30T10:16:02;115150.97;;;-141.28;37.09
12358;BME280;6243;51.244;6.774;2023-07-30T10:18:33;115150.97;;;-141.28;37.09
12358;BME280;6243;51.244;6.774;2023-07-30T10:20:59;115150.97;;;-141.28;35.41
12358;BME280;6243;51.244;6.774;2023-07-30T10:23:27;115150.97;;;-141.28;34.94
12358;BME280;6243;51.244;6.774;2023-07-30T10:25:53;115150.97;;;-141.28;35.20
12358;BME280;6243;51.244;6.774;2023-07-30T10:28:31;115150.97;;;-141.28;34.44
12358;BME280;6243;51.244;6.774;2023-07-30T10:30:58;115150.97;;;-141.28;35.66
12358;BME280;6243;51.244;6.774;2023-07-30T10:33:43;115150.97;;;-141.28;35.29
12358;BME280;6243;51.244;6.774;2023-07-30T10:36:10;115150.97;;;-141.28;35.40
12358;BME280;6243;51.244;6.774;2023-07-30T10:38:35;115150.97;;;-141.28;34.90
12358;BME280;6243;51.244;6.774;2023-07-30T10:41:03;115150.97;;;-141.28;34.19
12358;BME280;6243;51.244;6.774;2023-07-30T10:43:33;115150.97;;;-141.28;34.21
12358;BME280;6243;51.244;6.774;2023-07-30T10:45:59;115150.97;;;-141.28;33.84
12358;BME280;6243;51.244;6.774;2023-07-30T10:48:35;115150.97;;;-141.28;33.91
12358;BME280;6243;51.244;6.774;2023-07-30T10:51:02;115150.97;;;-141.28;34.70
12358;BME280;6243;51.244;6.774;2023-07-30T10:53:27;115150.97;;;-141.28;33.25
12358;BME280;6243;51.244;6.774;2023-07-30T10:55:53;115150.97;;;-141.28;33.40
12358;BME280;6243;51.244;6.774;2023-07-30T10:58:19;115150.97;;;-141.28;33.84
12358;BME280;6243;51.244;6.774;2023-07-30T11:00:46;115150.97;;;-141.28;32.48
12358;BME280;6243;51.244;6.774;2023-07-30T11:03:11;115150.97;;;-141.28;33.95
12358;BME280;6243;51.244;6.774;2023-07-30T11:05:38;115150.97;;;-141.28;33.78
12358;BME280;6243;51.244;6.774;2023-07-30T11:08:03;115150.97;;;-141.28;34.30
12358;BME280;6243;51.244;6.774;2023-07-30T11:10:29;115150.97;;;-141.28;33.42
12358;BME280;6243;51.244;6.774;2023-07-30T11:12:54;115150.97;;;-141.28;33.98
12358;BME280;6243;51.244;6.774;2023-07-30T11:15:21;115150.97;;;-141.28;35.11
12358;BME280;6243;51.244;6.774;2023-07-30T11:17:48;115150.97;;;-141.28;33.82
12358;BME280;6243;51.244;6.774;2023-07-30T11:20:23;115150.97;;;-141.28;34.18
12358;BME280;6243;51.244;6.774;2023-07-30T11:22:49;115150.97;;;-141.28;34.24
12358;BME280;6243;51.244;6.774;2023-07-30T11:25:17;115150.97;;;-141.28;33.88
12358;BME280;6243;51.244;6.774;2023-07-30T11:27:46;115150.97;;;-141.28;33.98
12358;BME280;6243;51.244;6.774;2023-07-30T11:30:12;115150.97;;;-141.28;34.15
12358;BME280;6243;51.244;6.774;2023-07-30T11:32:37;115150.97;;;-141.28;34.80
12358;BME280;6243;51.244;6.774;2023-07-30T11:35:05;115150.97;;;-141.28;34.14
12358;BME280;6243;51.244;6.774;2023-07-30T11:37:32;115150.97;;;-141.28;34.52
12358;BME280;6243;51.244;6.774;2023-07-30T11:39:58;115150.97;;;-141.28;33.73
12358;BME280;6243;51.244;6.774;2023-07-30T11:42:24;115150.97;;;-141.28;33.29
12358;BME280;6243;51.244;6.774;2023-07-30T11:44:50;115150.97;;;-141.28;34.18
12358;BME280;6243;51.244;6.774;2023-07-30T11:47:22;115150.97;;;-141.28;34.00
12358;BME280;6243;51.244;6.774;2023-07-30T11:49:55;115150.97;;;-141.28;33.70
12358;BME280;6243;51.244;6.774;2023-07-30T11:52:23;115150.97;;;-141.28;33.59
12358;BME280;6243;51.244;6.774;2023-07-30T11:54:49;115150.97;;;-141.28;34.42
12358;BME280;6243;51.244;6.774;2023-07-30T11:57:33;115150.97;;;-141.28;34.25
12358;BME280;6243;51.244;6.774;2023-07-30T11:59:58;115150.97;;;-141.28;34.04
12358;BME280;6243;51.244;6.774;2023-07-30T12:02:24;115150.97;;;-141.28;34.27
12358;BME280;6243;51.244;6.774;2023-07-30T12:04:49;115150.97;;;-141.28;35.60
12358;BME280;6243;51.244;6.774;2023-07-30T12:07:23;115150.97;;;-141.28;34.50
12358;BME280;6243;51.244;6.774;2023-07-30T12:09:49;115150.97;;;-141.28;34.67
12358;BME280;6243;51.244;6.774;2023-07-30T12:12:14;115150.97;;;-141.28;34.72
12358;BME280;6243;51.244;6.774;2023-07-30T12:14:44;115150.97;;;-141.28;34.58
12358;BME280;6243;51.244;6.774;2023-07-30T12:17:10;115150.97;;;-141.28;34.17
12358;BME280;6243;51.244;6.774;2023-07-30T12:19:35;115150.97;;;-141.28;34.33
12358;BME280;6243;51.244;6.774;2023-07-30T12:22:01;115150.97;;;-141.28;34.33
12358;BME280;6243;51.244;6.774;2023-07-30T12:24:28;115150.97;;;-141.28;33.39
12358;BME280;6243;51.244;6.774;2023-07-30T12:26:54;115150.97;;;-141.28;33.40
12358;BME280;6243;51.244;6.774;2023-07-30T12:29:19;115150.97;;;-141.28;32.83
12358;BME280;6243;51.244;6.774;2023-07-30T12:31:45;115150.97;;;-141.28;33.02
12358;BME280;6243;51.244;6.774;2023-07-30T12:34:10;115150.97;;;-141.28;33.70
12358;BME280;6243;51.244;6.774;2023-07-30T12:36:36;115150.97;;;-141.28;33.54
12358;BME280;6243;51.244;6.774;2023-07-30T12:39:01;115150.97;;;-141.28;33.89